sensor_id;sensor_type;location;lat;lon;timestamp;P1;durP1;ratioP1;P2;durP2;ratioP2
10315;SDS011;5203;48.976;8.306;2023-05-29T00:00:15;9.50;;;8.60;;
10315;SDS011;5203;48.976;8.306;2023-05-29T00:02:44;8.65;;;7.85;;
10315;SDS011;5203;48.976;8.306;2023-05-29T00:05:13;8.90;;;8.15;;
10315;SDS011;5203;48.976;8.306;2023-05-29T00:07:40;10.35;;;9.35;;
10315;SDS011;5203;48.976;8.306;2023-05-29T00:10:06;8.77;;;7.90;;
10315;SDS011;5203;48.976;8.306;2023-05-29T00:12:33;8.93;;;8.13;;
10315;SDS011;5203;48.976;8.306;2023-05-29T00:14:59;9.07;;;8.30;;
10315;SDS011;5203;48.976;8.306;2023-05-29T00:17:25;9.05;;;8.30;;
10315;SDS011;5203;48.976;8.306;2023-05-29T00:19:51;9.15;;;8.35;;
10315;SDS011;5203;48.976;8.306;2023-05-29T00:22:17;9.88;;;8.90;;
10315;SDS011;5203;48.976;8.306;2023-05-29T00:24:42;11.38;;;9.45;;
10315;SDS011;5203;48.976;8.306;2023-05-29T00:27:09;9.50;;;8.60;;
10315;SDS011;5203;48.976;8.306;2023-05-29T00:29:35;9.20;;;8.40;;
10315;SDS011;5203;48.976;8.306;2023-05-29T00:32:02;8.53;;;7.77;;
10315;SDS011;5203;48.976;8.306;2023-05-29T00:34:29;9.60;;;8.70;;
10315;SDS011;5203;48.976;8.306;2023-05-29T00:36:54;9.90;;;8.93;;
10315;SDS011;5203;48.976;8.306;2023-05-29T00:39:20;8.97;;;8.17;;
10315;SDS011;5203;48.976;8.306;2023-05-29T00:41:47;9.53;;;8.30;;
10315;SDS011;5203;48.976;8.306;2023-05-29T00:44:16;12.27;;;8.40;;
10315;SDS011;5203;48.976;8.306;2023-05-29T00:46:45;9.20;;;8.23;;
10315;SDS011;5203;48.976;8.306;2023-05-29T00:49:13;8.73;;;7.93;;
10315;SDS011;5203;48.976;8.306;2023-05-29T00:51:39;9.23;;;8.33;;
10315;SDS011;5203;48.976;8.306;2023-05-29T00:54:06;9.20;;;8.33;;
10315;SDS011;5203;48.976;8.306;2023-05-29T00:56:34;13.47;;;8.90;;
10315;SDS011;5203;48.976;8.306;2023-05-29T00:59:00;8.90;;;8.10;;
10315;SDS011;5203;48.976;8.306;2023-05-29T01:01:26;9.10;;;8.13;;
10315;SDS011;5203;48.976;8.306;2023-05-29T01:03:55;8.63;;;7.80;;
10315;SDS011;5203;48.976;8.306;2023-05-29T01:06:22;9.30;;;8.47;;
10315;SDS011;5203;48.976;8.306;2023-05-29T01:08:48;9.10;;;8.30;;
10315;SDS011;5203;48.976;8.306;2023-05-29T01:14:03;8.17;;;7.37;;
10315;SDS011;5203;48.976;8.306;2023-05-29T01:16:48;7.53;;;6.83;;
10315;SDS011;5203;48.976;8.306;2023-05-29T01:22:35;7.33;;;6.63;;
10315;SDS011;5203;48.976;8.306;2023-05-29T01:28:10;8.80;;;6.63;;
10315;SDS011;5203;48.976;8.306;2023-05-29T01:30:37;9.03;;;6.90;;
10315;SDS011;5203;48.976;8.306;2023-05-29T01:33:05;10.20;;;7.40;;
10315;SDS011;5203;48.976;8.306;2023-05-29T01:35:31;7.70;;;7.03;;
10315;SDS011;5203;48.976;8.306;2023-05-29T01:37:57;8.30;;;7.17;;
10315;SDS011;5203;48.976;8.306;2023-05-29T01:40:23;7.90;;;7.15;;
10315;SDS011;5203;48.976;8.306;2023-05-29T01:42:49;7.72;;;6.93;;
10315;SDS011;5203;48.976;8.306;2023-05-29T01:45:15;7.55;;;6.88;;
10315;SDS011;5203;48.976;8.306;2023-05-29T01:47:42;7.82;;;7.07;;
10315;SDS011;5203;48.976;8.306;2023-05-29T01:50:08;7.78;;;7.05;;
10315;SDS011;5203;48.976;8.306;2023-05-29T01:52:35;7.55;;;6.95;;
10315;SDS011;5203;48.976;8.306;2023-05-29T01:55:01;7.63;;;7.03;;
10315;SDS011;5203;48.976;8.306;2023-05-29T01:57:27;7.68;;;6.97;;
10315;SDS011;5203;48.976;8.306;2023-05-29T01:59:53;7.47;;;6.88;;
10315;SDS011;5203;48.976;8.306;2023-05-29T02:02:21;7.97;;;7.35;;
10315;SDS011;5203;48.976;8.306;2023-05-29T02:04:48;7.55;;;6.85;;
10315;SDS011;5203;48.976;8.306;2023-05-29T02:07:13;7.85;;;7.18;;
10315;SDS011;5203;48.976;8.306;2023-05-29T02:09:40;8.02;;;7.32;;
10315;SDS011;5203;48.976;8.306;2023-05-29T02:12:06;7.82;;;7.13;;
10315;SDS011;5203;48.976;8.306;2023-05-29T02:14:32;7.93;;;7.10;;
10315;SDS011;5203;48.976;8.306;2023-05-29T02:16:58;7.45;;;6.68;;
10315;SDS011;5203;48.976;8.306;2023-05-29T02:19:26;8.13;;;7.10;;
10315;SDS011;5203;48.976;8.306;2023-05-29T02:21:52;6.75;;;6.25;;
10315;SDS011;5203;48.976;8.306;2023-05-29T02:24:18;8.80;;;7.00;;
10315;SDS011;5203;48.976;8.306;2023-05-29T02:26:43;7.28;;;6.68;;
10315;SDS011;5203;48.976;8.306;2023-05-29T02:29:09;9.32;;;7.32;;
10315;SDS011;5203;48.976;8.306;2023-05-29T02:31:35;7.60;;;6.97;;
10315;SDS011;5203;48.976;8.306;2023-05-29T02:34:01;8.07;;;7.28;;
10315;SDS011;5203;48.976;8.306;2023-05-29T02:36:27;7.68;;;6.20;;
10315;SDS011;5203;48.976;8.306;2023-05-29T02:38:52;7.78;;;6.95;;
10315;SDS011;5203;48.976;8.306;2023-05-29T02:41:18;7.25;;;6.65;;
10315;SDS011;5203;48.976;8.306;2023-05-29T02:43:44;6.75;;;6.15;;
10315;SDS011;5203;48.976;8.306;2023-05-29T02:46:09;7.60;;;6.90;;
10315;SDS011;5203;48.976;8.306;2023-05-29T02:48:35;8.83;;;6.60;;
10315;SDS011;5203;48.976;8.306;2023-05-29T02:51:01;9.07;;;6.70;;
10315;SDS011;5203;48.976;8.306;2023-05-29T02:53:26;6.70;;;6.00;;
10315;SDS011;5203;48.976;8.306;2023-05-29T02:55:52;6.80;;;5.80;;
10315;SDS011;5203;48.976;8.306;2023-05-29T02:58:18;7.68;;;6.10;;
10315;SDS011;5203;48.976;8.306;2023-05-29T03:00:43;7.13;;;6.10;;
10315;SDS011;5203;48.976;8.306;2023-05-29T03:03:09;6.97;;;6.23;;
10315;SDS011;5203;48.976;8.306;2023-05-29T03:05:34;7.10;;;5.73;;
10315;SDS011;5203;48.976;8.306;2023-05-29T03:08:00;7.28;;;6.43;;
10315;SDS011;5203;48.976;8.306;2023-05-29T03:10:25;6.97;;;6.37;;
10315;SDS011;5203;48.976;8.306;2023-05-29T03:12:51;7.35;;;6.50;;
10315;SDS011;5203;48.976;8.306;2023-05-29T03:15:17;6.97;;;6.32;;
10315;SDS011;5203;48.976;8.306;2023-05-29T03:17:45;7.13;;;6.38;;
10315;SDS011;5203;48.976;8.306;2023-05-29T03:20:11;7.03;;;6.43;;
10315;SDS011;5203;48.976;8.306;2023-05-29T03:22:38;8.43;;;6.25;;
10315;SDS011;5203;48.976;8.306;2023-05-29T03:25:03;7.68;;;6.97;;
10315;SDS011;5203;48.976;8.306;2023-05-29T03:27:30;7.90;;;7.07;;
10315;SDS011;5203;48.976;8.306;2023-05-29T03:29:55;6.97;;;6.38;;
10315;SDS011;5203;48.976;8.306;2023-05-29T03:32:22;6.88;;;6.22;;
10315;SDS011;5203;48.976;8.306;2023-05-29T03:34:48;6.63;;;5.93;;
10315;SDS011;5203;48.976;8.306;2023-05-29T03:37:14;7.05;;;6.45;;
10315;SDS011;5203;48.976;8.306;2023-05-29T03:39:39;6.43;;;5.93;;
10315;SDS011;5203;48.976;8.306;2023-05-29T03:42:05;6.97;;;6.35;;
10315;SDS011;5203;48.976;8.306;2023-05-29T03:44:31;7.00;;;6.30;;
10315;SDS011;5203;48.976;8.306;2023-05-29T03:46:56;6.15;;;5.65;;
10315;SDS011;5203;48.976;8.306;2023-05-29T03:49:22;6.72;;;5.80;;
10315;SDS011;5203;48.976;8.306;2023-05-29T03:51:48;6.75;;;6.15;;
10315;SDS011;5203;48.976;8.306;2023-05-29T03:54:15;6.38;;;5.78;;
10315;SDS011;5203;48.976;8.306;2023-05-29T03:56:41;9.90;;;6.32;;
10315;SDS011;5203;48.976;8.306;2023-05-29T03:59:06;7.38;;;6.13;;
10315;SDS011;5203;48.976;8.306;2023-05-29T04:01:32;8.50;;;6.22;;
10315;SDS011;5203;48.976;8.306;2023-05-29T04:03:58;6.20;;;5.60;;
10315;SDS011;5203;48.976;8.306;2023-05-29T04:06:24;7.90;;;5.87;;
10315;SDS011;5203;48.976;8.306;2023-05-29T04:08:49;6.53;;;5.93;;
10315;SDS011;5203;48.976;8.306;2023-05-29T04:11:15;6.78;;;5.90;;
10315;SDS011;5203;48.976;8.306;2023-05-29T04:13:41;6.40;;;5.90;;
10315;SDS011;5203;48.976;8.306;2023-05-29T04:16:06;6.55;;;5.90;;
10315;SDS011;5203;48.976;8.306;2023-05-29T04:18:32;6.27;;;5.67;;
10315;SDS011;5203;48.976;8.306;2023-05-29T04:20:58;6.50;;;5.90;;
10315;SDS011;5203;48.976;8.306;2023-05-29T04:23:24;6.70;;;6.00;;
10315;SDS011;5203;48.976;8.306;2023-05-29T04:25:50;8.50;;;6.20;;
10315;SDS011;5203;48.976;8.306;2023-05-29T04:28:16;6.40;;;5.70;;
10315;SDS011;5203;48.976;8.306;2023-05-29T04:30:42;6.03;;;5.50;;
10315;SDS011;5203;48.976;8.306;2023-05-29T04:33:07;8.65;;;5.55;;
10315;SDS011;5203;48.976;8.306;2023-05-29T04:35:37;8.55;;;6.90;;
10315;SDS011;5203;48.976;8.306;2023-05-29T04:38:03;7.33;;;5.80;;
10315;SDS011;5203;48.976;8.306;2023-05-29T04:40:30;6.93;;;6.32;;
10315;SDS011;5203;48.976;8.306;2023-05-29T04:42:56;6.85;;;6.10;;
10315;SDS011;5203;48.976;8.306;2023-05-29T04:45:25;7.03;;;6.40;;
10315;SDS011;5203;48.976;8.306;2023-05-29T04:47:51;7.13;;;6.32;;
10315;SDS011;5203;48.976;8.306;2023-05-29T04:50:18;6.67;;;6.00;;
10315;SDS011;5203;48.976;8.306;2023-05-29T04:52:45;6.33;;;5.73;;
10315;SDS011;5203;48.976;8.306;2023-05-29T04:55:10;7.90;;;6.57;;
10315;SDS011;5203;48.976;8.306;2023-05-29T04:57:36;9.23;;;6.57;;
10315;SDS011;5203;48.976;8.306;2023-05-29T05:00:03;6.67;;;5.77;;
10315;SDS011;5203;48.976;8.306;2023-05-29T05:02:49;6.50;;;5.90;;
10315;SDS011;5203;48.976;8.306;2023-05-29T05:05:15;7.30;;;6.00;;
10315;SDS011;5203;48.976;8.306;2023-05-29T05:07:41;7.60;;;5.87;;
10315;SDS011;5203;48.976;8.306;2023-05-29T05:10:07;6.70;;;6.10;;
10315;SDS011;5203;48.976;8.306;2023-05-29T05:12:33;6.87;;;6.13;;
10315;SDS011;5203;48.976;8.306;2023-05-29T05:14:59;6.10;;;5.60;;
10315;SDS011;5203;48.976;8.306;2023-05-29T05:17:24;7.80;;;5.70;;
10315;SDS011;5203;48.976;8.306;2023-05-29T05:19:50;6.37;;;5.77;;
10315;SDS011;5203;48.976;8.306;2023-05-29T05:22:18;6.47;;;5.88;;
10315;SDS011;5203;48.976;8.306;2023-05-29T05:24:44;8.90;;;6.00;;
10315;SDS011;5203;48.976;8.306;2023-05-29T05:27:10;8.35;;;6.78;;
10315;SDS011;5203;48.976;8.306;2023-05-29T05:29:35;9.20;;;6.50;;
10315;SDS011;5203;48.976;8.306;2023-05-29T05:32:01;8.53;;;6.70;;
10315;SDS011;5203;48.976;8.306;2023-05-29T05:34:27;8.47;;;6.80;;
10315;SDS011;5203;48.976;8.306;2023-05-29T05:36:52;10.40;;;5.97;;
10315;SDS011;5203;48.976;8.306;2023-05-29T05:39:18;9.07;;;6.07;;
10315;SDS011;5203;48.976;8.306;2023-05-29T05:41:44;8.90;;;6.23;;
10315;SDS011;5203;48.976;8.306;2023-05-29T05:44:10;9.10;;;5.67;;
10315;SDS011;5203;48.976;8.306;2023-05-29T05:46:35;5.80;;;5.30;;
10315;SDS011;5203;48.976;8.306;2023-05-29T05:49:01;6.07;;;5.40;;
10315;SDS011;5203;48.976;8.306;2023-05-29T05:51:27;6.33;;;5.80;;
10315;SDS011;5203;48.976;8.306;2023-05-29T05:53:52;7.77;;;6.20;;
10315;SDS011;5203;48.976;8.306;2023-05-29T05:56:18;8.43;;;5.70;;
10315;SDS011;5203;48.976;8.306;2023-05-29T05:58:44;6.23;;;5.53;;
10315;SDS011;5203;48.976;8.306;2023-05-29T06:01:10;6.10;;;5.50;;
10315;SDS011;5203;48.976;8.306;2023-05-29T06:03:35;6.57;;;5.97;;
10315;SDS011;5203;48.976;8.306;2023-05-29T06:06:02;6.30;;;5.70;;
10315;SDS011;5203;48.976;8.306;2023-05-29T06:08:29;6.90;;;6.17;;
10315;SDS011;5203;48.976;8.306;2023-05-29T06:10:55;7.37;;;5.90;;
10315;SDS011;5203;48.976;8.306;2023-05-29T06:13:21;7.03;;;5.50;;
10315;SDS011;5203;48.976;8.306;2023-05-29T06:15:47;6.83;;;5.23;;
10315;SDS011;5203;48.976;8.306;2023-05-29T06:18:12;6.57;;;5.53;;
10315;SDS011;5203;48.976;8.306;2023-05-29T06:20:38;8.27;;;5.63;;
10315;SDS011;5203;48.976;8.306;2023-05-29T06:23:04;6.93;;;6.13;;
10315;SDS011;5203;48.976;8.306;2023-05-29T06:25:29;6.50;;;5.90;;
10315;SDS011;5203;48.976;8.306;2023-05-29T06:28:01;6.95;;;5.40;;
10315;SDS011;5203;48.976;8.306;2023-05-29T06:30:28;5.87;;;5.37;;
10315;SDS011;5203;48.976;8.306;2023-05-29T06:32:53;8.07;;;6.10;;
10315;SDS011;5203;48.976;8.306;2023-05-29T06:35:19;6.05;;;5.40;;
10315;SDS011;5203;48.976;8.306;2023-05-29T06:37:45;6.13;;;5.40;;
10315;SDS011;5203;48.976;8.306;2023-05-29T06:40:12;5.93;;;5.40;;
10315;SDS011;5203;48.976;8.306;2023-05-29T06:42:38;6.32;;;5.72;;
10315;SDS011;5203;48.976;8.306;2023-05-29T06:45:04;7.53;;;5.55;;
10315;SDS011;5203;48.976;8.306;2023-05-29T06:47:30;7.68;;;5.90;;
10315;SDS011;5203;48.976;8.306;2023-05-29T06:49:56;7.05;;;5.70;;
10315;SDS011;5203;48.976;8.306;2023-05-29T06:52:22;6.07;;;5.47;;
10315;SDS011;5203;48.976;8.306;2023-05-29T06:54:47;6.15;;;5.65;;
10315;SDS011;5203;48.976;8.306;2023-05-29T06:57:13;5.88;;;5.38;;
10315;SDS011;5203;48.976;8.306;2023-05-29T06:59:39;6.30;;;5.80;;
10315;SDS011;5203;48.976;8.306;2023-05-29T07:02:04;5.60;;;5.10;;
10315;SDS011;5203;48.976;8.306;2023-05-29T07:04:30;6.53;;;5.93;;
10315;SDS011;5203;48.976;8.306;2023-05-29T07:06:56;6.22;;;5.55;;
10315;SDS011;5203;48.976;8.306;2023-05-29T07:09:22;6.57;;;5.97;;
10315;SDS011;5203;48.976;8.306;2023-05-29T07:11:52;5.72;;;5.15;;
10315;SDS011;5203;48.976;8.306;2023-05-29T07:14:18;8.15;;;5.82;;
10315;SDS011;5203;48.976;8.306;2023-05-29T07:16:43;6.10;;;5.57;;
10315;SDS011;5203;48.976;8.306;2023-05-29T07:19:09;6.68;;;6.07;;
10315;SDS011;5203;48.976;8.306;2023-05-29T07:21:36;6.47;;;5.97;;
10315;SDS011;5203;48.976;8.306;2023-05-29T07:24:02;6.07;;;5.60;;
10315;SDS011;5203;48.976;8.306;2023-05-29T07:26:27;9.05;;;5.80;;
10315;SDS011;5203;48.976;8.306;2023-05-29T07:28:53;6.72;;;6.10;;
10315;SDS011;5203;48.976;8.306;2023-05-29T07:31:18;6.70;;;5.55;;
10315;SDS011;5203;48.976;8.306;2023-05-29T07:33:44;6.80;;;6.10;;
10315;SDS011;5203;48.976;8.306;2023-05-29T07:36:10;6.20;;;5.60;;
10315;SDS011;5203;48.976;8.306;2023-05-29T07:38:37;6.70;;;6.10;;
10315;SDS011;5203;48.976;8.306;2023-05-29T07:41:02;6.45;;;5.90;;
10315;SDS011;5203;48.976;8.306;2023-05-29T07:43:28;6.88;;;6.18;;
10315;SDS011;5203;48.976;8.306;2023-05-29T07:45:53;8.25;;;5.97;;
10315;SDS011;5203;48.976;8.306;2023-05-29T07:48:19;6.18;;;5.60;;
10315;SDS011;5203;48.976;8.306;2023-05-29T07:50:45;6.05;;;5.50;;
10315;SDS011;5203;48.976;8.306;2023-05-29T07:53:11;7.20;;;6.57;;
10315;SDS011;5203;48.976;8.306;2023-05-29T07:55:37;7.22;;;6.35;;
10315;SDS011;5203;48.976;8.306;2023-05-29T07:58:02;7.63;;;5.47;;
10315;SDS011;5203;48.976;8.306;2023-05-29T08:00:28;6.43;;;5.93;;
10315;SDS011;5203;48.976;8.306;2023-05-29T08:02:54;6.45;;;5.85;;
10315;SDS011;5203;48.976;8.306;2023-05-29T08:05:20;6.45;;;5.85;;
10315;SDS011;5203;48.976;8.306;2023-05-29T08:07:46;6.93;;;6.05;;
10315;SDS011;5203;48.976;8.306;2023-05-29T08:10:13;5.90;;;5.40;;
10315;SDS011;5203;48.976;8.306;2023-05-29T08:12:39;7.20;;;5.80;;
10315;SDS011;5203;48.976;8.306;2023-05-29T08:15:05;7.90;;;5.50;;
10315;SDS011;5203;48.976;8.306;2023-05-29T08:17:31;6.43;;;5.93;;
10315;SDS011;5203;48.976;8.306;2023-05-29T08:19:56;6.35;;;5.85;;
10315;SDS011;5203;48.976;8.306;2023-05-29T08:22:27;6.72;;;6.22;;
10315;SDS011;5203;48.976;8.306;2023-05-29T08:24:53;6.88;;;6.28;;
10315;SDS011;5203;48.976;8.306;2023-05-29T08:27:19;6.68;;;6.03;;
10315;SDS011;5203;48.976;8.306;2023-05-29T08:29:45;7.10;;;6.15;;
10315;SDS011;5203;48.976;8.306;2023-05-29T08:32:10;7.72;;;6.72;;
10315;SDS011;5203;48.976;8.306;2023-05-29T08:34:36;7.22;;;6.50;;
10315;SDS011;5203;48.976;8.306;2023-05-29T08:37:02;6.45;;;5.95;;
10315;SDS011;5203;48.976;8.306;2023-05-29T08:39:27;7.18;;;6.43;;
10315;SDS011;5203;48.976;8.306;2023-05-29T08:44:58;8.60;;;6.80;;
10315;SDS011;5203;48.976;8.306;2023-05-29T08:47:29;7.53;;;6.75;;
10315;SDS011;5203;48.976;8.306;2023-05-29T08:50:00;7.10;;;6.50;;
10315;SDS011;5203;48.976;8.306;2023-05-29T08:52:27;7.68;;;7.07;;
10315;SDS011;5203;48.976;8.306;2023-05-29T08:55:00;8.10;;;7.43;;
10315;SDS011;5203;48.976;8.306;2023-05-29T08:57:27;8.18;;;7.38;;
10315;SDS011;5203;48.976;8.306;2023-05-29T08:59:54;7.95;;;7.25;;
10315;SDS011;5203;48.976;8.306;2023-05-29T09:02:21;7.18;;;6.65;;
10315;SDS011;5203;48.976;8.306;2023-05-29T09:04:47;7.72;;;7.13;;
10315;SDS011;5203;48.976;8.306;2023-05-29T09:07:14;7.47;;;6.95;;
10315;SDS011;5203;48.976;8.306;2023-05-29T09:09:41;8.10;;;7.40;;
10315;SDS011;5203;48.976;8.306;2023-05-29T09:12:07;7.80;;;7.03;;
10315;SDS011;5203;48.976;8.306;2023-05-29T09:14:38;7.75;;;7.15;;
10315;SDS011;5203;48.976;8.306;2023-05-29T09:17:06;7.72;;;7.13;;
10315;SDS011;5203;48.976;8.306;2023-05-29T09:19:33;8.30;;;7.78;;
10315;SDS011;5203;48.976;8.306;2023-05-29T09:22:00;8.95;;;8.05;;
10315;SDS011;5203;48.976;8.306;2023-05-29T09:24:29;9.90;;;7.70;;
10315;SDS011;5203;48.976;8.306;2023-05-29T09:26:56;8.55;;;7.85;;
10315;SDS011;5203;48.976;8.306;2023-05-29T09:29:23;8.80;;;8.10;;
10315;SDS011;5203;48.976;8.306;2023-05-29T09:31:50;9.38;;;8.60;;
10315;SDS011;5203;48.976;8.306;2023-05-29T09:34:16;9.02;;;8.43;;
10315;SDS011;5203;48.976;8.306;2023-05-29T09:36:41;9.40;;;8.55;;
10315;SDS011;5203;48.976;8.306;2023-05-29T09:39:07;9.60;;;8.85;;
10315;SDS011;5203;48.976;8.306;2023-05-29T09:41:42;9.40;;;8.63;;
10315;SDS011;5203;48.976;8.306;2023-05-29T09:44:10;9.52;;;8.60;;
10315;SDS011;5203;48.976;8.306;2023-05-29T09:46:38;8.70;;;8.10;;
10315;SDS011;5203;48.976;8.306;2023-05-29T09:49:14;10.18;;;9.55;;
10315;SDS011;5203;48.976;8.306;2023-05-29T09:51:41;9.43;;;8.82;;
10315;SDS011;5203;48.976;8.306;2023-05-29T09:54:15;11.15;;;10.45;;
10315;SDS011;5203;48.976;8.306;2023-05-29T09:56:42;11.90;;;11.00;;
10315;SDS011;5203;48.976;8.306;2023-05-29T09:59:13;12.20;;;11.40;;
10315;SDS011;5203;48.976;8.306;2023-05-29T10:01:40;11.98;;;11.27;;
10315;SDS011;5203;48.976;8.306;2023-05-29T10:04:09;12.07;;;11.30;;
10315;SDS011;5203;48.976;8.306;2023-05-29T10:06:36;11.30;;;10.60;;
10315;SDS011;5203;48.976;8.306;2023-05-29T10:09:04;11.95;;;11.15;;
10315;SDS011;5203;48.976;8.306;2023-05-29T10:11:33;12.50;;;11.50;;
10315;SDS011;5203;48.976;8.306;2023-05-29T10:14:00;12.65;;;11.73;;
10315;SDS011;5203;48.976;8.306;2023-05-29T10:16:27;13.13;;;12.07;;
10315;SDS011;5203;48.976;8.306;2023-05-29T10:18:54;13.80;;;12.80;;
10315;SDS011;5203;48.976;8.306;2023-05-29T10:21:21;14.30;;;13.50;;
10315;SDS011;5203;48.976;8.306;2023-05-29T10:23:47;14.23;;;13.43;;
10315;SDS011;5203;48.976;8.306;2023-05-29T10:26:17;14.57;;;13.48;;
10315;SDS011;5203;48.976;8.306;2023-05-29T10:28:48;15.35;;;14.45;;
10315;SDS011;5203;48.976;8.306;2023-05-29T10:31:39;14.43;;;13.65;;
10315;SDS011;5203;48.976;8.306;2023-05-29T10:36:51;15.88;;;14.98;;
10315;SDS011;5203;48.976;8.306;2023-05-29T10:39:29;16.27;;;15.32;;
10315;SDS011;5203;48.976;8.306;2023-05-29T10:41:54;16.80;;;15.90;;
10315;SDS011;5203;48.976;8.306;2023-05-29T10:49:24;15.90;;;15.10;;
10315;SDS011;5203;48.976;8.306;2023-05-29T10:51:50;16.20;;;15.25;;
10315;SDS011;5203;48.976;8.306;2023-05-29T10:54:21;15.75;;;14.75;;
10315;SDS011;5203;48.976;8.306;2023-05-29T10:57:00;15.57;;;14.77;;
10315;SDS011;5203;48.976;8.306;2023-05-29T10:59:29;16.02;;;15.23;;
10315;SDS011;5203;48.976;8.306;2023-05-29T11:02:04;16.67;;;15.45;;
10315;SDS011;5203;48.976;8.306;2023-05-29T11:04:34;15.68;;;14.77;;
10315;SDS011;5203;48.976;8.306;2023-05-29T11:07:01;16.40;;;15.30;;
10315;SDS011;5203;48.976;8.306;2023-05-29T11:09:34;17.15;;;16.10;;
10315;SDS011;5203;48.976;8.306;2023-05-29T11:20:00;19.05;;;18.05;;
10315;SDS011;5203;48.976;8.306;2023-05-29T11:22:30;18.35;;;17.48;;
10315;SDS011;5203;48.976;8.306;2023-05-29T11:25:20;19.00;;;17.90;;
10315;SDS011;5203;48.976;8.306;2023-05-29T11:27:46;19.00;;;18.02;;
10315;SDS011;5203;48.976;8.306;2023-05-29T11:30:11;19.35;;;18.27;;
10315;SDS011;5203;48.976;8.306;2023-05-29T11:32:38;18.95;;;17.98;;
10315;SDS011;5203;48.976;8.306;2023-05-29T11:35:08;19.40;;;18.30;;
10315;SDS011;5203;48.976;8.306;2023-05-29T11:37:37;19.58;;;18.35;;
10315;SDS011;5203;48.976;8.306;2023-05-29T11:40:04;21.23;;;20.17;;
10315;SDS011;5203;48.976;8.306;2023-05-29T11:42:34;20.10;;;19.00;;
10315;SDS011;5203;48.976;8.306;2023-05-29T11:45:13;21.88;;;20.73;;
10315;SDS011;5203;48.976;8.306;2023-05-29T11:50:18;21.63;;;20.48;;
10315;SDS011;5203;48.976;8.306;2023-05-29T11:52:45;21.05;;;20.10;;
10315;SDS011;5203;48.976;8.306;2023-05-29T11:55:11;21.15;;;20.25;;
10315;SDS011;5203;48.976;8.306;2023-05-29T11:57:37;21.42;;;20.30;;
10315;SDS011;5203;48.976;8.306;2023-05-29T12:00:03;20.58;;;19.63;;
10315;SDS011;5203;48.976;8.306;2023-05-29T12:02:35;22.05;;;21.02;;
10315;SDS011;5203;48.976;8.306;2023-05-29T12:05:05;22.40;;;21.17;;
10315;SDS011;5203;48.976;8.306;2023-05-29T12:07:35;21.60;;;20.55;;
10315;SDS011;5203;48.976;8.306;2023-05-29T12:10:11;23.98;;;22.67;;
10315;SDS011;5203;48.976;8.306;2023-05-29T12:12:41;22.63;;;21.63;;
10315;SDS011;5203;48.976;8.306;2023-05-29T12:15:07;24.02;;;23.02;;
10315;SDS011;5203;48.976;8.306;2023-05-29T12:17:34;24.52;;;23.48;;
10315;SDS011;5203;48.976;8.306;2023-05-29T12:20:01;25.45;;;24.08;;
10315;SDS011;5203;48.976;8.306;2023-05-29T12:22:32;26.23;;;25.05;;
10315;SDS011;5203;48.976;8.306;2023-05-29T12:25:04;24.88;;;23.65;;
10315;SDS011;5203;48.976;8.306;2023-05-29T12:27:31;25.58;;;24.20;;
10315;SDS011;5203;48.976;8.306;2023-05-29T12:30:03;24.70;;;23.65;;
10315;SDS011;5203;48.976;8.306;2023-05-29T12:32:37;25.80;;;24.70;;
10315;SDS011;5203;48.976;8.306;2023-05-29T12:37:35;24.67;;;23.67;;
10315;SDS011;5203;48.976;8.306;2023-05-29T12:42:43;25.55;;;24.38;;
10315;SDS011;5203;48.976;8.306;2023-05-29T12:45:09;26.30;;;24.88;;
10315;SDS011;5203;48.976;8.306;2023-05-29T12:47:36;26.10;;;24.75;;
10315;SDS011;5203;48.976;8.306;2023-05-29T12:53:06;24.58;;;23.48;;
10315;SDS011;5203;48.976;8.306;2023-05-29T12:55:34;25.30;;;24.10;;
10315;SDS011;5203;48.976;8.306;2023-05-29T12:58:13;25.73;;;24.60;;
10315;SDS011;5203;48.976;8.306;2023-05-29T13:00:44;24.90;;;23.80;;
10315;SDS011;5203;48.976;8.306;2023-05-29T13:03:10;25.13;;;24.13;;
10315;SDS011;5203;48.976;8.306;2023-05-29T13:05:36;24.45;;;23.25;;
10315;SDS011;5203;48.976;8.306;2023-05-29T13:08:02;23.67;;;22.63;;
10315;SDS011;5203;48.976;8.306;2023-05-29T13:10:30;23.73;;;22.73;;
10315;SDS011;5203;48.976;8.306;2023-05-29T13:12:55;24.10;;;22.90;;
10315;SDS011;5203;48.976;8.306;2023-05-29T13:15:23;23.90;;;22.90;;
10315;SDS011;5203;48.976;8.306;2023-05-29T13:17:51;23.13;;;22.02;;
10315;SDS011;5203;48.976;8.306;2023-05-29T13:20:18;24.02;;;22.92;;
10315;SDS011;5203;48.976;8.306;2023-05-29T13:22:45;24.80;;;23.60;;
10315;SDS011;5203;48.976;8.306;2023-05-29T13:25:12;23.75;;;22.60;;
10315;SDS011;5203;48.976;8.306;2023-05-29T13:27:40;23.40;;;22.38;;
10315;SDS011;5203;48.976;8.306;2023-05-29T13:30:08;23.50;;;22.50;;
10315;SDS011;5203;48.976;8.306;2023-05-29T13:32:34;23.02;;;21.95;;
10315;SDS011;5203;48.976;8.306;2023-05-29T13:35:00;23.88;;;22.88;;
10315;SDS011;5203;48.976;8.306;2023-05-29T13:37:27;22.90;;;22.00;;
10315;SDS011;5203;48.976;8.306;2023-05-29T13:39:53;23.20;;;22.15;;
10315;SDS011;5203;48.976;8.306;2023-05-29T13:42:19;23.98;;;22.90;;
10315;SDS011;5203;48.976;8.306;2023-05-29T13:44:45;23.75;;;22.67;;
10315;SDS011;5203;48.976;8.306;2023-05-29T13:47:12;23.73;;;22.63;;
10315;SDS011;5203;48.976;8.306;2023-05-29T13:49:37;23.90;;;22.85;;
10315;SDS011;5203;48.976;8.306;2023-05-29T13:52:03;25.27;;;24.08;;
10315;SDS011;5203;48.976;8.306;2023-05-29T13:54:29;24.13;;;23.13;;
10315;SDS011;5203;48.976;8.306;2023-05-29T13:56:57;24.33;;;23.13;;
10315;SDS011;5203;48.976;8.306;2023-05-29T13:59:23;23.08;;;22.08;;
10315;SDS011;5203;48.976;8.306;2023-05-29T14:01:49;23.55;;;22.42;;
10315;SDS011;5203;48.976;8.306;2023-05-29T14:04:15;22.85;;;21.83;;
10315;SDS011;5203;48.976;8.306;2023-05-29T14:06:41;22.30;;;21.30;;
10315;SDS011;5203;48.976;8.306;2023-05-29T14:09:06;23.75;;;22.55;;
10315;SDS011;5203;48.976;8.306;2023-05-29T14:11:35;24.30;;;23.30;;
10315;SDS011;5203;48.976;8.306;2023-05-29T14:14:02;23.20;;;22.20;;
10315;SDS011;5203;48.976;8.306;2023-05-29T14:16:28;23.27;;;22.17;;
10315;SDS011;5203;48.976;8.306;2023-05-29T14:18:54;25.25;;;24.05;;
10315;SDS011;5203;48.976;8.306;2023-05-29T14:21:20;24.45;;;23.48;;
10315;SDS011;5203;48.976;8.306;2023-05-29T14:23:46;24.63;;;23.63;;
10315;SDS011;5203;48.976;8.306;2023-05-29T14:26:11;24.92;;;23.83;;
10315;SDS011;5203;48.976;8.306;2023-05-29T14:28:37;25.10;;;23.88;;
10315;SDS011;5203;48.976;8.306;2023-05-29T14:31:04;26.45;;;24.95;;
10315;SDS011;5203;48.976;8.306;2023-05-29T14:33:30;26.02;;;25.02;;
10315;SDS011;5203;48.976;8.306;2023-05-29T14:35:57;27.73;;;26.63;;
10315;SDS011;5203;48.976;8.306;2023-05-29T14:38:23;28.13;;;27.02;;
10315;SDS011;5203;48.976;8.306;2023-05-29T14:40:49;27.10;;;25.92;;
10315;SDS011;5203;48.976;8.306;2023-05-29T14:43:15;26.75;;;25.73;;
10315;SDS011;5203;48.976;8.306;2023-05-29T14:45:41;26.33;;;25.38;;
10315;SDS011;5203;48.976;8.306;2023-05-29T14:48:06;24.73;;;23.73;;
10315;SDS011;5203;48.976;8.306;2023-05-29T14:50:32;27.13;;;26.02;;
10315;SDS011;5203;48.976;8.306;2023-05-29T14:52:57;24.73;;;23.58;;
10315;SDS011;5203;48.976;8.306;2023-05-29T14:55:23;23.45;;;22.45;;
10315;SDS011;5203;48.976;8.306;2023-05-29T14:57:49;24.05;;;23.13;;
10315;SDS011;5203;48.976;8.306;2023-05-29T15:00:15;24.73;;;23.63;;
10315;SDS011;5203;48.976;8.306;2023-05-29T15:02:41;27.65;;;26.55;;
10315;SDS011;5203;48.976;8.306;2023-05-29T15:05:06;26.77;;;25.58;;
10315;SDS011;5203;48.976;8.306;2023-05-29T15:07:32;27.00;;;25.92;;
10315;SDS011;5203;48.976;8.306;2023-05-29T15:10:10;26.30;;;25.05;;
10315;SDS011;5203;48.976;8.306;2023-05-29T15:12:42;26.30;;;25.30;;
10315;SDS011;5203;48.976;8.306;2023-05-29T15:15:08;25.83;;;24.65;;
10315;SDS011;5203;48.976;8.306;2023-05-29T15:17:34;24.60;;;23.65;;
10315;SDS011;5203;48.976;8.306;2023-05-29T15:19:59;26.60;;;25.60;;
10315;SDS011;5203;48.976;8.306;2023-05-29T15:22:25;26.05;;;24.98;;
10315;SDS011;5203;48.976;8.306;2023-05-29T15:24:51;26.80;;;25.63;;
10315;SDS011;5203;48.976;8.306;2023-05-29T15:27:16;28.38;;;27.15;;